BKDO2: Broken Bow Lake

Data processed at Thu Jan 04 2018 23:08


All information presented herein is the property of the government of the United States of America and may be revised or deleted at any time without prior notice.
Dissemination of this information without the expressed written consent of the Public Affairs Office, Tulsa District U.S. Army Corps of Engineers is strictly prohibited.
These data are gathered electronically and, as presented, have not undergone any form of quality control. These data are not guaranteed to be valid or correct.
Go to home page.
Go to station list.

Upstream stations:

Downstream station:
Previous Day
Next Day
Current Day
    
SHEF ID:       BKDO2     Broken Bow Lake
STATION TYPE:  RESERVOIR
Normal Pool:  Bottom =   559.00, Top =   599.50

               PRECIP ELEVATION   STORAGE   TW-ELEV    INFLOW   RELEASE  AIR-TEMP  WIND-DIRWIND-SPEED REL-HUMID SOLAR-RAD   VOLTAGE  BAT-LOAD
                   in        ft     ac-ft        ft       cfs       cfs         F       deg       mph         %      W/m2      volt      volt
              Ccp-Rev   Ccp-Rev   Ccp-Rev   Ccp-Rev  Regi-Rev  Regi-Rev   Ccp-Rev   Ccp-Rev   Ccp-Rev   Ccp-Rev   Ccp-Rev   Ccp-Rev   Ccp-Rev
(US/Central)
01/02 00:00      0.00    590.91    801923    401.13         0       136     19.00     58.80      0.64     47.44      0.00     12.95     12.54
01/02 01:00      0.00    590.91    801923    401.13       136       136     18.68     71.50      0.41     55.20      0.00     12.91     12.54
01/02 02:00      0.00    590.91    801923    401.13       136       136     17.47     65.80      0.68     52.51      0.00     12.90     12.54
01/02 03:00      0.00    590.91    801923    401.13       135       135     16.27     67.70      0.56     47.99      0.00     12.87     12.48
01/02 04:00      0.00    590.91    801923    401.13       108       135     15.62     88.10      0.33     49.09      0.00     12.86     12.48
01/02 05:00      0.00    590.91    801923    401.13        81       135     15.71     61.30      0.22     55.13      0.00     12.83     12.42
01/02 06:00      0.00    590.91    801923    401.13        54       136     15.39     58.50      0.19     51.11      0.00     12.81     12.42
01/02 07:00      0.00    590.91    801923    401.13        27       135     15.28     84.20      0.56     50.06      0.00     12.79     12.42
01/02 08:00      0.00    590.89    801675    403.77       174      1424     14.95    105.30      0.12     54.64     21.00     12.79     12.36
01/02 09:00      0.00    590.85    801178    405.50       214      7045     17.69     98.50      0.28     47.31     99.00     13.02     12.42
01/02 10:00      0.00    590.82    800806    404.76       225      7012     19.89     74.80      1.01     38.03    272.00     13.42     12.60
01/02 11:00      0.00    590.80    800558    402.91       235      3528     21.76     85.00      0.46     44.51    218.00     13.70     12.95
01/02 12:00      0.00    590.80    800558    401.12       235       132     23.20     65.00      0.90     40.60    278.00     13.89     13.12
01/02 13:00      0.00    590.80    800558    401.12        72       133     25.05     30.90      0.26     37.97    259.00     13.85     13.18
01/02 14:00      0.00    590.79    800434    401.11        41       133     25.61    145.60      0.48     29.12    173.00     13.57     13.24
01/02 15:00      0.00    590.79    800434    401.11        41       132     26.49     28.50      0.20     31.44     84.00     13.33     13.07
01/02 16:00      0.00    590.79    800434    401.11        91       132     26.17    192.00      0.72     29.61     41.00     13.17     12.89
01/02 17:00      0.00    590.79    800434    401.11       150       132     26.15    195.80      0.25     32.54     13.00     13.09     12.77
01/02 18:00      0.00    590.80    800558    401.11       144       132     25.83    156.20      0.54     35.71      0.00     13.04     12.65
01/02 19:00      0.00    590.79    800434    401.11       138       133     25.16    147.80      0.79     35.29      0.00     13.02     12.65
01/02 20:00      0.00    590.81    800682    401.11       132       132     25.38    112.20      1.10     35.90      0.00     12.99     12.60
01/02 21:00      0.00    590.79    800434    401.11        99       132     24.62    116.60      1.98     39.74      1.00     12.96     12.60
01/02 22:00      0.00    590.79    800434    401.11        66       133     23.29    163.00      0.99     45.48      0.00     12.93     12.54
01/02 23:00      0.00    590.78    800310    401.11        65       132     21.20    149.10      1.05     51.89      0.00     12.90     12.54